Avilla, Indiana
Current Conditions -  °F | °C
As of 9:15 AM on Friday 19 Dec 2014 (Local Time) from KGWB Reporting Station
Haze Haze  
Wind Chill: 28°   Ceiling: 700
Heat Index: 28°   Visibility: 4mi
Dew Point: 25°   Wind: 3mph
Humidity: 86%   Direction: 280°W
Pressure: 30.26"   Gusts: NA
Location:  41.37°N, 85.24°W
Report Text: KGWB 191415Z AUTO 28003KT 4SM BR BKN007 BKN012 M02/M04 A3026 RMK AO2
Loading
Personal Weather Stations






























Interactive Weather Map New forecast layout! Learn more

10-Day Weather Forecast

Advertisements
Track Severe Weather on mobile